createdAt,value
2023-05-21T00:02:24.538Z,99547.20
2023-05-21T00:04:52.659Z,99549.57
2023-05-21T00:07:21.090Z,99548.05
2023-05-21T00:09:49.063Z,99540.73
2023-05-21T00:12:17.016Z,99540.16
2023-05-21T00:14:44.992Z,99534.84
2023-05-21T00:17:12.962Z,99534.98
2023-05-21T00:19:40.932Z,99534.25
2023-05-21T00:22:09.376Z,99530.84
2023-05-21T00:24:37.371Z,99527.27
2023-05-21T00:27:05.712Z,99526.04
2023-05-21T00:29:33.618Z,99524.25
2023-05-21T00:32:01.670Z,99521.34
2023-05-21T00:34:29.812Z,99521.48
2023-05-21T00:36:57.730Z,99524.46
2023-05-21T00:39:26.190Z,99528.54
2023-05-21T00:41:54.156Z,99525.38
2023-05-21T00:44:22.292Z,99528.06
2023-05-21T00:46:53.774Z,99530.33
2023-05-21T00:49:24.518Z,99524.64
2023-05-21T00:51:53.120Z,99524.31
2023-05-21T00:54:22.185Z,99526.00
2023-05-21T00:56:51.345Z,99523.77
2023-05-21T00:59:19.505Z,99523.33
2023-05-21T01:01:54.018Z,99525.02
2023-05-21T01:04:25.453Z,99525.48
2023-05-21T01:06:53.671Z,99521.69
2023-05-21T01:09:22.413Z,99517.02
2023-05-21T01:11:51.753Z,99516.08
2023-05-21T01:14:20.827Z,99516.80
2023-05-21T01:16:50.350Z,99513.59
2023-05-21T01:19:23.878Z,99512.77
2023-05-21T01:21:53.010Z,99510.25
2023-05-21T01:24:21.261Z,99514.38
2023-05-21T01:26:49.650Z,99512.25
2023-05-21T01:29:17.673Z,99512.28
2023-05-21T01:31:59.580Z,99515.61
2023-05-21T01:34:45.866Z,99515.52
2023-05-21T01:37:27.046Z,99513.98
2023-05-21T01:40:05.588Z,99508.23
2023-05-21T01:42:36.201Z,99509.34
2023-05-21T01:45:07.064Z,99510.77
2023-05-21T01:47:37.488Z,99508.98
2023-05-21T01:50:06.856Z,99508.38
2023-05-21T01:52:34.903Z,99502.42
2023-05-21T01:55:03.682Z,99504.84
2023-05-21T01:57:32.005Z,99501.23
2023-05-21T02:00:01.232Z,99498.58
2023-05-21T02:02:29.326Z,99495.89
2023-05-21T02:04:57.387Z,99496.19
2023-05-21T02:07:25.324Z,99493.16
2023-05-21T02:09:53.222Z,99496.48
2023-05-21T02:12:21.389Z,99495.55
2023-05-21T02:14:50.462Z,99493.08
2023-05-21T02:17:18.627Z,99491.38
2023-05-21T02:19:46.623Z,99492.20
2023-05-21T02:22:14.613Z,99493.33
2023-05-21T02:24:42.991Z,99496.54
2023-05-21T02:27:13.473Z,99499.34
2023-05-21T02:29:41.587Z,99497.05
2023-05-21T02:32:09.566Z,99495.36
2023-05-21T02:34:42.410Z,99493.84
2023-05-21T02:37:10.523Z,99490.56
2023-05-21T02:39:38.496Z,99492.81
2023-05-21T02:42:07.499Z,99490.70
2023-05-21T02:44:35.927Z,99494.39
2023-05-21T02:47:04.144Z,99492.46
2023-05-21T02:49:32.567Z,99492.07
2023-05-21T02:52:00.581Z,99494.61
2023-05-21T02:54:28.574Z,99490.02
2023-05-21T02:56:56.722Z,99494.16
2023-05-21T02:59:24.747Z,99495.92
2023-05-21T03:01:52.853Z,99492.19
2023-05-21T03:04:24.055Z,99489.11
2023-05-21T03:06:54.968Z,99487.92
2023-05-21T03:09:23.038Z,99481.08
2023-05-21T03:11:51.065Z,99480.69
2023-05-21T03:14:19.313Z,99480.98
2023-05-21T03:16:47.501Z,99480.49
2023-05-21T03:19:15.635Z,99480.92
2023-05-21T03:21:44.695Z,99480.93
2023-05-21T03:24:13.797Z,99479.49
2023-05-21T03:26:41.832Z,99478.14
2023-05-21T03:29:10.305Z,99478.98
2023-05-21T03:31:39.883Z,99478.20
2023-05-21T03:34:10.564Z,99478.81
2023-05-21T03:36:38.619Z,99479.48
2023-05-21T03:39:07.091Z,99481.70
2023-05-21T03:41:35.378Z,99482.91
2023-05-21T03:44:08.860Z,99484.18
2023-05-21T03:46:47.947Z,99487.08
2023-05-21T03:49:26.873Z,99491.11
2023-05-21T03:51:56.538Z,99496.52
2023-05-21T03:54:24.599Z,99495.36
2023-05-21T03:56:55.509Z,99498.50
2023-05-21T03:59:24.274Z,99491.77
2023-05-21T04:01:52.822Z,99491.74
2023-05-21T04:04:20.837Z,99488.88
2023-05-21T04:06:51.175Z,99485.69
2023-05-21T04:09:19.324Z,99485.14
2023-05-21T04:11:48.024Z,99488.85
2023-05-21T04:14:16.059Z,99486.94
2023-05-21T04:16:44.095Z,99489.81
2023-05-21T04:19:12.227Z,99488.25
2023-05-21T04:21:42.059Z,99487.30
2023-05-21T04:24:10.200Z,99479.85
2023-05-21T04:26:48.186Z,99481.77
2023-05-21T04:29:21.269Z,99480.61
2023-05-21T04:31:50.137Z,99477.48
2023-05-21T04:34:18.923Z,99474.61
2023-05-21T04:36:47.149Z,99471.59
2023-05-21T04:39:16.363Z,99467.41
2023-05-21T04:41:44.936Z,99468.48
2023-05-21T04:44:15.045Z,99468.73
2023-05-21T04:46:46.187Z,99466.74
2023-05-21T04:49:15.401Z,99467.67
2023-05-21T04:51:43.354Z,99464.46
2023-05-21T04:54:11.506Z,99461.18
2023-05-21T04:56:39.577Z,99461.30
2023-05-21T04:59:07.650Z,99458.38
2023-05-21T05:01:38.634Z,99462.96
2023-05-21T05:04:06.807Z,99464.59
2023-05-21T05:06:34.841Z,99462.27
2023-05-21T05:09:02.999Z,99461.14
2023-05-21T05:11:31.810Z,99458.92
2023-05-21T05:13:59.795Z,99466.34
2023-05-21T05:16:29.763Z,99460.02
2023-05-21T05:18:58.035Z,99459.04
2023-05-21T05:21:26.060Z,99456.05
2023-05-21T05:23:54.149Z,99455.61
2023-05-21T05:26:26.227Z,99454.67
2023-05-21T05:28:54.263Z,99455.77
2023-05-21T05:31:22.233Z,99454.44
2023-05-21T05:33:50.426Z,99451.50
2023-05-21T05:36:18.484Z,99450.39
2023-05-21T05:38:47.268Z,99452.53
2023-05-21T05:41:15.305Z,99453.55
2023-05-21T05:43:43.379Z,99448.90
2023-05-21T05:46:11.395Z,99446.87
2023-05-21T05:48:40.273Z,99443.96
2023-05-21T05:51:08.433Z,99441.40
2023-05-21T05:53:36.590Z,99441.00
2023-05-21T05:56:05.055Z,99442.20
2023-05-21T05:58:33.237Z,99441.16
2023-05-21T06:01:13.403Z,99438.22
2023-05-21T06:03:41.684Z,99439.89
2023-05-21T06:06:15.596Z,99438.21
2023-05-21T06:08:43.877Z,99437.15
2023-05-21T06:11:17.139Z,99435.05
2023-05-21T06:13:45.791Z,99428.63
2023-05-21T06:16:14.238Z,99425.55
2023-05-21T06:18:42.793Z,99429.11
2023-05-21T06:21:11.143Z,99433.14
2023-05-21T06:23:39.669Z,99431.80
2023-05-21T06:26:08.456Z,99430.45
2023-05-21T06:28:36.987Z,99430.39
2023-05-21T06:31:05.495Z,99431.41
2023-05-21T06:33:34.175Z,99430.86
2023-05-21T06:36:02.258Z,99430.31
2023-05-21T06:38:30.698Z,99433.06
2023-05-21T06:40:58.707Z,99432.55
2023-05-21T06:43:46.925Z,99431.18
2023-05-21T06:46:35.939Z,99430.67
2023-05-21T06:49:07.943Z,99429.70
2023-05-21T06:51:36.032Z,99430.36
2023-05-21T06:54:04.681Z,99425.60
2023-05-21T06:56:32.806Z,99426.01
2023-05-21T06:59:00.802Z,99419.21
2023-05-21T07:01:29.039Z,99419.05
2023-05-21T07:03:58.196Z,99416.77
2023-05-21T07:06:26.742Z,99413.16
2023-05-21T07:08:54.878Z,99411.33
2023-05-21T07:11:25.292Z,99413.32
2023-05-21T07:13:53.283Z,99415.70
2023-05-21T07:16:21.451Z,99414.60
2023-05-21T07:18:49.976Z,99414.10
2023-05-21T07:21:18.132Z,99415.24
2023-05-21T07:23:49.835Z,99414.82
2023-05-21T07:26:18.003Z,99413.94
2023-05-21T07:28:46.324Z,99414.94
2023-05-21T07:31:14.377Z,99411.70
2023-05-21T07:33:46.489Z,99408.73
2023-05-21T07:36:14.822Z,99408.06
2023-05-21T07:38:44.159Z,99407.79
2023-05-21T07:41:12.191Z,99406.37
2023-05-21T07:43:40.433Z,99406.11
2023-05-21T07:46:08.422Z,99402.03
2023-05-21T07:48:37.869Z,99404.82
2023-05-21T07:51:06.185Z,99406.30
2023-05-21T07:53:34.247Z,99403.19
2023-05-21T07:56:04.614Z,99402.84
2023-05-21T07:58:35.300Z,99405.06
2023-05-21T08:01:03.796Z,99405.96
2023-05-21T08:03:32.576Z,99402.63
2023-05-21T08:06:00.673Z,99405.31
2023-05-21T08:08:28.799Z,99397.94
2023-05-21T08:10:57.694Z,99400.80
2023-05-21T08:13:28.747Z,99398.96
2023-05-21T08:15:56.777Z,99398.52
2023-05-21T08:18:25.489Z,99393.84
2023-05-21T08:20:55.814Z,99396.35
2023-05-21T08:23:24.691Z,99397.94
2023-05-21T08:25:55.722Z,99396.75
2023-05-21T08:28:23.743Z,99396.77
2023-05-21T08:30:52.696Z,99394.95
2023-05-21T08:33:22.937Z,99396.84
2023-05-21T08:35:50.869Z,99400.29
2023-05-21T08:38:28.670Z,99399.09
2023-05-21T08:41:05.947Z,99398.36
2023-05-21T08:43:34.519Z,99397.46
2023-05-21T08:46:04.765Z,99401.85
2023-05-21T08:48:38.107Z,99402.63
2023-05-21T08:51:06.467Z,99398.59
2023-05-21T08:53:38.505Z,99404.98
2023-05-21T08:56:09.480Z,99405.02
2023-05-21T08:58:47.209Z,99405.06
2023-05-21T09:01:19.578Z,99403.05
2023-05-21T09:03:52.628Z,99402.27
2023-05-21T09:06:21.668Z,99411.56
2023-05-21T09:08:58.771Z,99409.94
2023-05-21T09:11:42.544Z,99408.44
2023-05-21T09:14:11.666Z,99411.31
2023-05-21T09:17:09.011Z,99413.46
2023-05-21T09:19:37.172Z,99411.77
2023-05-21T09:22:05.192Z,99418.30
2023-05-21T09:24:36.233Z,99418.69
2023-05-21T09:27:07.232Z,99419.33
2023-05-21T09:29:35.603Z,99415.61
2023-05-21T09:32:08.117Z,99416.80
2023-05-21T09:34:37.272Z,99418.98
2023-05-21T09:37:16.487Z,99419.48
2023-05-21T09:39:48.846Z,99419.61
2023-05-21T09:42:17.274Z,99418.98
2023-05-21T09:44:45.548Z,99420.69
2023-05-21T09:47:19.896Z,99419.46
2023-05-21T09:49:49.293Z,99420.45
2023-05-21T09:52:25.360Z,99419.44
2023-05-21T09:54:53.522Z,99416.63
2023-05-21T09:57:26.428Z,99408.57
2023-05-21T09:59:54.742Z,99409.44
2023-05-21T10:02:24.679Z,99406.49
2023-05-21T10:04:54.650Z,99402.41
2023-05-21T10:07:28.928Z,99401.16
2023-05-21T10:09:58.018Z,99400.69
2023-05-21T10:12:28.836Z,99398.04
2023-05-21T10:15:12.051Z,99396.48
2023-05-21T10:17:41.084Z,99390.84
2023-05-21T10:20:11.761Z,99389.60
2023-05-21T10:22:40.984Z,99388.62
2023-05-21T10:25:09.500Z,99387.37
2023-05-21T10:27:37.685Z,99385.27
2023-05-21T10:30:07.210Z,99385.14
2023-05-21T10:32:35.336Z,99381.48
2023-05-21T10:35:03.716Z,99385.34
2023-05-21T10:37:31.730Z,99380.16
2023-05-21T10:39:59.897Z,99382.34
2023-05-21T10:42:48.157Z,99379.13
2023-05-21T10:45:50.722Z,99373.73
2023-05-21T10:48:43.713Z,99373.83
2023-05-21T10:52:00.486Z,99370.65
2023-05-21T10:54:56.290Z,99372.52
2023-05-21T10:57:58.394Z,99365.18
2023-05-21T11:00:27.488Z,99363.48
2023-05-21T11:02:55.634Z,99365.84
2023-05-21T11:05:40.579Z,99358.14
2023-05-21T11:08:31.688Z,99362.02
2023-05-21T11:10:59.711Z,99355.22
2023-05-21T11:13:31.434Z,99354.85
2023-05-21T11:15:59.500Z,99354.77
2023-05-21T11:18:39.650Z,99354.96
2023-05-21T11:21:13.652Z,99356.41
2023-05-21T11:23:51.206Z,99355.83
2023-05-21T11:26:27.864Z,99356.52
2023-05-21T11:29:04.748Z,99353.84
2023-05-21T11:31:38.422Z,99353.39
2023-05-21T11:34:32.203Z,99348.14
2023-05-21T11:37:18.821Z,99346.68
2023-05-21T11:39:48.213Z,99343.59
2023-05-21T11:42:35.403Z,99347.19
2023-05-21T11:45:04.239Z,99341.05
2023-05-21T11:47:32.801Z,99339.92
2023-05-21T11:50:02.789Z,99337.33
2023-05-21T11:52:31.882Z,99328.05
2023-05-21T11:55:00.067Z,99324.30
2023-05-21T11:57:32.383Z,99323.92
2023-05-21T12:00:02.420Z,99322.18
2023-05-21T12:02:46.197Z,99323.71
2023-05-21T12:05:14.501Z,99322.66
2023-05-21T12:07:42.745Z,99323.94
2023-05-21T12:10:11.388Z,99323.80
2023-05-21T12:12:53.277Z,99329.23
2023-05-21T12:15:24.581Z,99333.33
2023-05-21T12:17:53.377Z,99328.42
2023-05-21T12:20:22.417Z,99326.42
2023-05-21T12:22:50.555Z,99325.24
2023-05-21T12:25:20.604Z,99320.34
2023-05-21T12:27:50.991Z,99318.60
2023-05-21T12:30:19.521Z,99317.92
2023-05-21T12:32:48.994Z,99319.86
2023-05-21T12:35:24.429Z,99319.89
2023-05-21T12:37:53.051Z,99323.55
2023-05-21T12:40:22.276Z,99322.45
2023-05-21T12:42:51.655Z,99318.52
2023-05-21T12:45:21.161Z,99312.59
2023-05-21T12:47:50.755Z,99313.23
2023-05-21T12:50:21.234Z,99314.15
2023-05-21T12:52:49.320Z,99317.30
2023-05-21T12:55:17.654Z,99316.80
2023-05-21T12:57:46.227Z,99317.85
2023-05-21T13:00:14.472Z,99311.46
2023-05-21T13:02:44.444Z,99307.45
2023-05-21T13:05:17.795Z,99305.70
2023-05-21T13:07:48.965Z,99303.28
2023-05-21T13:10:17.398Z,99300.37
2023-05-21T13:12:46.157Z,99297.66
2023-05-21T13:15:14.496Z,99293.48
2023-05-21T13:17:42.617Z,99287.66
2023-05-21T13:20:20.466Z,99287.21
2023-05-21T13:22:51.834Z,99291.71
2023-05-21T13:25:22.431Z,99292.75
2023-05-21T13:27:51.963Z,99296.49
2023-05-21T13:30:20.971Z,99293.70
2023-05-21T13:32:49.355Z,99297.20
2023-05-21T13:35:17.815Z,99300.68
2023-05-21T13:37:46.061Z,99300.53
2023-05-21T13:40:15.750Z,99300.20
2023-05-21T13:42:45.644Z,99302.44
2023-05-21T13:45:16.038Z,99299.70
2023-05-21T13:47:45.403Z,99302.16
2023-05-21T13:50:13.696Z,99305.54
2023-05-21T13:52:41.765Z,99306.80
2023-05-21T13:55:10.802Z,99308.82
2023-05-21T13:57:40.587Z,99305.57
2023-05-21T14:00:10.567Z,99303.07
2023-05-21T14:02:38.712Z,99302.42
2023-05-21T14:05:07.067Z,99300.10
2023-05-21T14:07:35.054Z,99298.57
2023-05-21T14:10:03.040Z,99298.40
2023-05-21T14:12:31.369Z,99300.30
2023-05-21T14:14:59.438Z,99298.07
2023-05-21T14:17:27.445Z,99295.19
2023-05-21T14:19:55.935Z,99297.68
2023-05-21T14:22:24.090Z,99300.87
2023-05-21T14:24:52.812Z,99305.34
2023-05-21T14:27:21.021Z,99302.50
2023-05-21T14:29:49.043Z,99303.03
2023-05-21T14:32:18.442Z,99303.12
2023-05-21T14:34:46.470Z,99302.42
2023-05-21T14:37:14.404Z,99302.02
2023-05-21T14:39:42.291Z,99300.95
2023-05-21T14:42:10.498Z,99299.36
2023-05-21T14:44:38.458Z,99303.23
2023-05-21T14:47:06.446Z,99300.91
2023-05-21T14:49:34.413Z,99294.63
2023-05-21T14:52:02.370Z,99291.55
2023-05-21T14:54:30.397Z,99291.25
2023-05-21T14:56:58.380Z,99289.34
2023-05-21T14:59:26.331Z,99287.25
2023-05-21T15:01:54.422Z,99280.02
2023-05-21T15:04:22.510Z,99277.46
2023-05-21T15:06:51.268Z,99277.97
2023-05-21T15:09:19.177Z,99272.73
2023-05-21T15:11:47.155Z,99274.11
2023-05-21T15:14:15.110Z,99277.27
2023-05-21T15:16:43.162Z,99276.11
2023-05-21T15:19:11.975Z,99270.38
2023-05-21T15:21:40.006Z,99268.16
2023-05-21T15:24:08.112Z,99268.69
2023-05-21T15:26:36.138Z,99266.20
2023-05-21T15:29:04.187Z,99264.37
2023-05-21T15:31:32.783Z,99263.86
2023-05-21T15:34:00.935Z,99255.98
2023-05-21T15:36:28.876Z,99252.55
2023-05-21T15:38:56.942Z,99254.08
2023-05-21T15:41:24.873Z,99251.84
2023-05-21T15:43:52.855Z,99245.90
2023-05-21T15:46:21.202Z,99241.64
2023-05-21T15:48:49.246Z,99241.66
2023-05-21T15:51:20.893Z,99241.49
2023-05-21T15:53:48.897Z,99247.54
2023-05-21T15:56:16.946Z,99249.23
2023-05-21T15:58:44.961Z,99246.58
2023-05-21T16:01:13.172Z,99248.67
2023-05-21T16:03:41.210Z,99250.11
2023-05-21T16:06:10.405Z,99248.48
2023-05-21T16:08:38.295Z,99246.91
2023-05-21T16:11:06.418Z,99245.88
2023-05-21T16:13:34.409Z,99244.34
2023-05-21T16:16:02.560Z,99247.39
2023-05-21T16:18:30.779Z,99246.96
2023-05-21T16:20:58.729Z,99244.45
2023-05-21T16:23:26.707Z,99247.83
2023-05-21T16:25:54.658Z,99252.41
2023-05-21T16:28:24.441Z,99255.06
2023-05-21T16:30:52.552Z,99252.70
2023-05-21T16:33:20.534Z,99249.98
2023-05-21T16:35:48.494Z,99249.75
2023-05-21T16:38:16.587Z,99248.52
2023-05-21T16:40:45.356Z,99255.95
2023-05-21T16:43:13.417Z,99253.55
2023-05-21T16:45:43.416Z,99252.71
2023-05-21T16:48:12.879Z,99251.27
2023-05-21T16:50:41.257Z,99251.15
2023-05-21T16:53:09.977Z,99253.61
2023-05-21T16:55:38.533Z,99251.09
2023-05-21T16:58:06.960Z,99254.69
2023-05-21T17:00:34.971Z,99255.55
2023-05-21T17:03:03.237Z,99255.77
2023-05-21T17:05:31.376Z,99255.61
2023-05-21T17:07:59.451Z,99258.31
2023-05-21T17:10:27.770Z,99257.48
2023-05-21T17:12:56.361Z,99256.95
2023-05-21T17:15:26.818Z,99257.52
2023-05-21T17:17:54.769Z,99255.35
2023-05-21T17:20:22.868Z,99249.84
2023-05-21T17:22:50.803Z,99255.92
2023-05-21T17:25:19.241Z,99256.63
2023-05-21T17:27:47.395Z,99257.96
2023-05-21T17:30:15.649Z,99259.61
2023-05-21T17:32:43.710Z,99260.41
2023-05-21T17:35:11.622Z,99255.17
2023-05-21T17:37:39.631Z,99256.30
2023-05-21T17:40:08.338Z,99256.81
2023-05-21T17:42:36.325Z,99255.73
2023-05-21T17:45:04.828Z,99257.27
2023-05-21T17:47:34.651Z,99253.48
2023-05-21T17:50:02.786Z,99256.05
2023-05-21T17:52:30.946Z,99255.20
2023-05-21T17:54:58.858Z,99253.23
2023-05-21T17:57:26.820Z,99258.57
2023-05-21T17:59:55.592Z,99257.77
2023-05-21T18:02:23.652Z,99258.20
2023-05-21T18:04:52.729Z,99260.34
2023-05-21T18:07:22.280Z,99268.21
2023-05-21T18:09:50.389Z,99272.20
2023-05-21T18:12:18.671Z,99275.45
2023-05-21T18:14:47.541Z,99277.20
2023-05-21T18:17:15.796Z,99273.65
2023-05-21T18:19:43.835Z,99274.80
2023-05-21T18:22:11.945Z,99275.67
2023-05-21T18:24:39.888Z,99278.02
2023-05-21T18:27:07.895Z,99278.57
2023-05-21T18:29:39.726Z,99275.34
2023-05-21T18:32:10.942Z,99276.61
2023-05-21T18:34:39.066Z,99279.24
2023-05-21T18:37:07.045Z,99275.33
2023-05-21T18:39:35.050Z,99275.67
2023-05-21T18:42:12.825Z,99276.58
2023-05-21T18:44:45.774Z,99279.64
2023-05-21T18:47:13.895Z,99277.60
2023-05-21T18:49:41.982Z,99274.34
2023-05-21T18:52:09.929Z,99276.76
2023-05-21T18:54:37.883Z,99276.73
2023-05-21T18:57:06.789Z,99278.19
2023-05-21T18:59:35.092Z,99278.52
2023-05-21T19:02:04.398Z,99280.80
2023-05-21T19:04:33.294Z,99280.27
2023-05-21T19:07:02.783Z,99281.09
2023-05-21T19:09:30.732Z,99281.71
2023-05-21T19:12:00.547Z,99282.39
2023-05-21T19:14:28.587Z,99282.23
2023-05-21T19:16:57.025Z,99283.48
2023-05-21T19:19:25.451Z,99285.75
2023-05-21T19:21:53.610Z,99287.61
2023-05-21T19:24:21.748Z,99290.16
2023-05-21T19:26:50.062Z,99290.52
2023-05-21T19:29:18.116Z,99288.04
2023-05-21T19:31:46.136Z,99292.40
2023-05-21T19:34:14.093Z,99292.38
2023-05-21T19:36:51.987Z,99293.73
2023-05-21T19:39:21.521Z,99289.73
2023-05-21T19:41:49.572Z,99287.96
2023-05-21T19:44:18.736Z,99286.50
2023-05-21T19:46:46.736Z,99291.36
2023-05-21T19:49:15.938Z,99291.74
2023-05-21T19:51:44.038Z,99287.63
2023-05-21T19:54:12.115Z,99284.26
2023-05-21T19:56:40.152Z,99280.72
2023-05-21T19:59:08.238Z,99280.89
2023-05-21T20:01:39.537Z,99280.67
2023-05-21T20:04:07.771Z,99281.01
2023-05-21T20:06:36.137Z,99283.86
2023-05-21T20:09:05.385Z,99285.23
2023-05-21T20:11:34.450Z,99288.52
2023-05-21T20:14:02.437Z,99291.56
2023-05-21T20:16:30.471Z,99290.83
2023-05-21T20:18:58.547Z,99289.60
2023-05-21T20:21:26.653Z,99288.13
2023-05-21T20:23:54.711Z,99284.45
2023-05-21T20:26:23.252Z,99281.80
2023-05-21T20:28:51.420Z,99278.94
2023-05-21T20:31:19.578Z,99277.42
2023-05-21T20:33:50.567Z,99277.19
2023-05-21T20:36:21.177Z,99276.11
2023-05-21T20:38:49.341Z,99277.36
2023-05-21T20:41:17.491Z,99280.88
2023-05-21T20:43:46.058Z,99280.43
2023-05-21T20:46:14.142Z,99277.20
2023-05-21T20:48:43.617Z,99275.19
2023-05-21T20:51:12.179Z,99278.34
2023-05-21T20:53:43.761Z,99278.60
2023-05-21T20:56:14.880Z,99278.12
2023-05-21T20:58:42.862Z,99276.30
2023-05-21T21:01:11.126Z,99277.63
2023-05-21T21:03:41.385Z,99278.76
2023-05-21T21:06:09.831Z,99282.90
2023-05-21T21:08:40.379Z,99282.42
2023-05-21T21:11:09.063Z,99284.52
2023-05-21T21:13:37.126Z,99286.08
2023-05-21T21:16:05.930Z,99288.73
2023-05-21T21:18:34.184Z,99283.36
2023-05-21T21:21:02.219Z,99283.33
2023-05-21T21:23:30.316Z,99289.08
2023-05-21T21:25:58.549Z,99290.20
2023-05-21T21:28:26.576Z,99289.96
2023-05-21T21:30:54.682Z,99291.30
2023-05-21T21:33:24.396Z,99292.28
2023-05-21T21:35:52.499Z,99291.77
2023-05-21T21:38:20.463Z,99290.25
2023-05-21T21:40:48.654Z,99288.67
2023-05-21T21:43:16.690Z,99291.27
2023-05-21T21:45:44.819Z,99288.42
2023-05-21T21:48:13.031Z,99292.09
2023-05-21T21:50:41.254Z,99294.42
2023-05-21T21:53:14.036Z,99291.95
2023-05-21T21:55:42.216Z,99298.11
2023-05-21T21:58:10.464Z,99294.59
2023-05-21T22:00:38.796Z,99293.52
2023-05-21T22:03:07.016Z,99296.98
2023-05-21T22:05:35.696Z,99295.73
2023-05-21T22:08:03.861Z,99295.16
2023-05-21T22:10:33.650Z,99298.04
2023-05-21T22:13:02.978Z,99293.20
2023-05-21T22:15:32.311Z,99296.55
2023-05-21T22:18:03.639Z,99294.38
2023-05-21T22:20:33.156Z,99292.24
2023-05-21T22:23:01.319Z,99289.01
2023-05-21T22:25:29.330Z,99286.27
2023-05-21T22:27:57.326Z,99286.17
2023-05-21T22:30:25.265Z,99282.67
2023-05-21T22:32:53.359Z,99282.52
2023-05-21T22:35:21.415Z,99286.49
2023-05-21T22:37:49.393Z,99284.00
2023-05-21T22:40:17.594Z,99282.15
2023-05-21T22:42:47.122Z,99279.80
2023-05-21T22:45:15.386Z,99279.65
2023-05-21T22:47:43.368Z,99277.56
2023-05-21T22:50:11.368Z,99276.24
2023-05-21T22:52:39.482Z,99278.27
2023-05-21T22:55:11.279Z,99275.34
2023-05-21T22:57:39.567Z,99273.30
2023-05-21T23:00:09.128Z,99274.05
2023-05-21T23:02:37.436Z,99271.38
2023-05-21T23:05:05.765Z,99271.69
2023-05-21T23:07:33.744Z,99274.73
2023-05-21T23:10:01.819Z,99271.72
2023-05-21T23:12:29.985Z,99272.13
2023-05-21T23:14:57.937Z,99270.79
2023-05-21T23:17:26.378Z,99270.22
2023-05-21T23:19:54.364Z,99268.05
2023-05-21T23:22:22.358Z,99265.34
2023-05-21T23:24:51.110Z,99267.58
2023-05-21T23:27:19.224Z,99268.63
2023-05-21T23:29:47.485Z,99266.86
2023-05-21T23:32:15.546Z,99270.23
2023-05-21T23:34:43.586Z,99264.90
2023-05-21T23:37:11.642Z,99260.63
2023-05-21T23:39:39.916Z,99264.75
2023-05-21T23:42:08.014Z,99269.57
2023-05-21T23:44:35.992Z,99267.85
2023-05-21T23:47:04.280Z,99262.23
2023-05-21T23:49:32.217Z,99262.08
2023-05-21T23:52:00.303Z,99261.40
2023-05-21T23:54:28.291Z,99257.73
2023-05-21T23:56:56.226Z,99255.30
2023-05-21T23:59:24.230Z,99258.55
